Time;durP1;ratioP1;P1;durP2;ratioP2;P2;SDS_P1;SDS_P2;PMS_P1;PMS_P2;Temp;Humidity;BMP_temperature;BMP_pressure;BME280_temperature;BME280_humidity;BME280_pressure;Samples;Min_cycle;Max_cycle;Signal;HPM_P1;HPM_P2
2023/01/18 00:00:40;;;;;;;;;;;;;;;-0.75;77.12;98561.17;106139;1287;58837;-72
2023/01/18 00:03:07;;;;;;;;;;;;;;;-0.78;77.03;98564.38;106260;1287;59098;-73
2023/01/18 00:05:33;;;;;;;;;;;;;;;-0.80;77.11;98559.32;105517;1289;59266;-72
2023/01/18 00:07:59;;;;;;;;;;;;;;;-0.78;77.26;98558.64;104963;1288;61274;-71
2023/01/18 00:10:24;;;;;;;;;;;;;;;-0.77;77.22;98566.25;104995;1288;61323;-71
2023/01/18 00:12:49;;;;;;;;;;;;;;;-0.76;77.21;98568.77;104936;1288;61247;-72
2023/01/18 00:15:15;;;;;;;;;;;;;;;-0.75;77.19;98565.91;105011;1288;61238;-72
2023/01/18 00:17:50;;;;;;;;;;;;;;;-0.76;77.22;98568.61;104986;1288;59646;-72
2023/01/18 00:20:17;;;;;;;;;;;;;;;-0.77;77.26;98569.80;97653;1288;10003855;-72
2023/01/18 00:22:42;;;;;;;;;;;;;;;-0.81;77.24;98572.01;105076;1288;61273;-72
2023/01/18 00:25:09;;;;;;;;;;;;;;;-0.82;77.24;98572.02;105102;1288;59260;-72
2023/01/18 00:27:38;;;;;;;;;;;;;;;-0.82;77.35;98571.17;105137;1289;68196;-72
2023/01/18 00:30:04;;;;;;;;;;;;;;;-0.81;77.29;98581.48;105145;1288;73148;-72
2023/01/18 00:32:29;;;;;;;;;;;;;;;-0.82;77.27;98586.73;105153;1288;61369;-72
2023/01/18 00:34:55;;;;;;;;;;;;;;;-0.80;77.27;98576.41;105146;1291;61485;-72
2023/01/18 00:37:22;;;;;;;;;;;;;;;-0.78;77.23;98570.14;104962;1288;61303;-72
2023/01/18 00:39:48;;;;;;;;;;;;;;;-0.81;77.07;98572.85;105143;1288;61363;-72
2023/01/18 00:44:57;;;;;;;;;;;;;;;-0.96;77.11;98564.95;105154;1288;61267;-72
2023/01/18 00:47:23;;;;;;;;;;;;;;;-0.96;77.23;98567.66;105024;1290;61363;-72
2023/01/18 00:49:49;;;;;;;;;;;;;;;-0.94;77.35;98574.59;105171;1289;62036;-72
2023/01/18 00:52:14;;;;;;;;;;;;;;;-0.92;77.35;98573.23;105139;1288;61281;-72
2023/01/18 00:54:39;;;;;;;;;;;;;;;-0.94;77.25;98579.83;105163;1288;61262;-72
2023/01/18 00:57:04;;;;;;;;;;;;;;;-0.96;77.34;98587.77;105023;1287;61286;-72
2023/01/18 00:59:30;;;;;;;;;;;;;;;-1.00;77.27;98594.38;105152;1288;61391;-71
2023/01/18 01:01:55;;;;;;;;;;;;;;;-1.00;77.43;98596.74;105201;1288;62176;-72
2023/01/18 01:07:04;;;;;;;;;;;;;;;-0.94;77.55;98599.45;105175;1288;60132;-72
2023/01/18 01:09:30;;;;;;;;;;;;;;;-0.90;77.61;98604.51;105182;1288;63484;-72
2023/01/18 01:28:23;;;;;;;;;;;;;;;-0.64;77.62;98597.16;106143;1288;72591;-73
2023/01/18 01:30:48;;;;;;;;;;;;;;;-0.60;77.67;98592.24;106112;1288;59427;-73
2023/01/18 01:33:16;;;;;;;;;;;;;;;-0.54;77.67;98586.13;105375;1289;61372;-73
2023/01/18 01:35:41;;;;;;;;;;;;;;;-0.49;77.71;98586.58;105091;1288;61313;-73
2023/01/18 01:38:06;;;;;;;;;;;;;;;-0.47;77.57;98586.57;105022;1289;59509;-73
2023/01/18 01:40:31;;;;;;;;;;;;;;;-0.48;77.58;98585.39;105198;1288;59779;-72
2023/01/18 01:42:57;;;;;;;;;;;;;;;-0.47;77.61;98590.29;105160;1291;59456;-73
2023/01/18 01:45:24;;;;;;;;;;;;;;;-0.48;77.65;98588.60;105175;1288;59641;-72
2023/01/18 01:47:50;;;;;;;;;;;;;;;-0.47;77.65;98588.61;105087;1288;61372;-72
2023/01/18 01:50:21;;;;;;;;;;;;;;;-0.46;77.66;98587.23;105166;1287;61460;-72
2023/01/18 01:52:47;;;;;;;;;;;;;;;-0.44;77.71;98580.64;105196;1288;61681;-72
2023/01/18 01:55:23;;;;;;;;;;;;;;;-0.42;77.78;98577.58;105198;1289;61223;-73
2023/01/18 01:57:54;;;;;;;;;;;;;;;-0.41;77.67;98579.77;105153;1291;73652;-73
2023/01/18 02:00:23;;;;;;;;;;;;;;;-0.43;77.60;98574.38;105186;1291;68560;-73
2023/01/18 02:02:56;;;;;;;;;;;;;;;-0.45;77.60;98574.20;104981;1288;72699;-73
2023/01/18 02:05:22;;;;;;;;;;;;;;;-0.45;77.69;98579.96;105210;1288;61338;-72
2023/01/18 02:07:48;;;;;;;;;;;;;;;-0.44;77.82;98580.97;105159;1289;60279;-72
2023/01/18 02:10:13;;;;;;;;;;;;;;;-0.42;77.78;98590.45;105163;1289;61280;-72
2023/01/18 02:12:40;;;;;;;;;;;;;;;-0.41;77.83;98589.59;105181;1291;59856;-73
2023/01/18 02:15:06;;;;;;;;;;;;;;;-0.41;77.75;98596.36;106011;1289;59835;-73
2023/01/18 02:17:34;;;;;;;;;;;;;;;-0.42;77.79;98599.58;106263;1288;58688;-73
2023/01/18 02:20:38;;;;;;;;;;;;;;;-0.40;77.84;98599.91;106239;1288;59007;-71
2023/01/18 02:23:09;;;;;;;;;;;;;;;-0.38;77.77;98600.58;105184;1295;72552;-73
2023/01/18 02:25:50;;;;;;;;;;;;;;;-0.37;77.85;98592.28;104615;1294;66665;-73
2023/01/18 02:28:16;;;;;;;;;;;;;;;-0.36;77.87;98587.20;104542;1294;72600;-73
2023/01/18 02:30:46;;;;;;;;;;;;;;;-0.35;77.83;98583.30;104578;1294;60436;-72
2023/01/18 02:33:26;;;;;;;;;;;;;;;-0.34;77.84;98578.73;104623;1294;59673;-72
2023/01/18 02:35:54;;;;;;;;;;;;;;;-0.35;77.89;98572.47;104474;1298;74638;-73
2023/01/18 02:38:27;;;;;;;;;;;;;;;-0.35;77.82;98575.85;104491;1300;68163;-72
2023/01/18 02:40:55;;;;;;;;;;;;;;;-0.35;77.88;98578.39;104489;1293;70746;-72
2023/01/18 02:48:54;;;;;;;;;;;;;;;-0.32;77.84;98577.36;104218;1294;388497;-71
2023/01/18 02:51:20;;;;;;;;;;;;;;;-0.32;77.88;98577.70;105650;1297;59452;-73
2023/01/18 02:53:46;;;;;;;;;;;;;;;-0.32;77.86;98574.66;97988;1292;10002456;-72
2023/01/18 02:56:17;;;;;;;;;;;;;;;-0.34;77.86;98569.58;106248;1291;59467;-73
2023/01/18 02:59:03;;;;;;;;;;;;;;;-0.33;77.82;98568.73;106128;1287;73607;-72
2023/01/18 03:01:32;;;;;;;;;;;;;;;-0.34;77.81;98563.66;105098;1291;69045;-72
2023/01/18 03:04:05;;;;;;;;;;;;;;;-0.34;77.80;98558.58;105158;1288;70654;-72
2023/01/18 03:06:31;;;;;;;;;;;;;;;-0.34;77.81;98550.63;105196;1291;61092;-73
2023/01/18 03:08:57;;;;;;;;;;;;;;;-0.36;77.86;98545.21;105185;1287;61277;-72
2023/01/18 03:11:29;;;;;;;;;;;;;;;-0.35;77.85;98544.20;105181;1289;61289;-72
2023/01/18 03:13:58;;;;;;;;;;;;;;;-0.36;77.82;98548.77;105164;1288;68554;-72
2023/01/18 03:16:26;;;;;;;;;;;;;;;-0.40;77.85;98552.69;105155;1289;72474;-72
2023/01/18 03:18:59;;;;;;;;;;;;;;;-0.43;77.86;98553.38;105184;1288;61230;-72
2023/01/18 03:21:37;;;;;;;;;;;;;;;-0.45;77.89;98558.47;105086;1290;61052;-74
2023/01/18 03:24:05;;;;;;;;;;;;;;;-0.48;77.85;98556.45;105201;1287;74275;-72
2023/01/18 03:26:33;;;;;;;;;;;;;;;-0.51;77.83;98561.71;105004;1289;67369;-72
2023/01/18 03:34:34;;;;;;;;;;;;;;;-0.53;77.88;98557.02;105026;1288;61140;-72
2023/01/18 03:37:01;;;;;;;;;;;;;;;-0.56;77.89;98557.37;105174;1288;75331;-72
2023/01/18 03:39:32;;;;;;;;;;;;;;;-0.58;77.91;98560.76;105172;1288;67874;-72
2023/01/18 03:42:17;;;;;;;;;;;;;;;-0.59;77.99;98558.23;105186;1291;72386;-72
2023/01/18 03:45:12;;;;;;;;;;;;;;;-0.60;78.07;98557.05;105168;1288;61081;-72
2023/01/18 03:47:38;;;;;;;;;;;;;;;-0.63;77.98;98562.30;104590;1296;60438;-71
2023/01/18 03:50:04;;;;;;;;;;;;;;;-0.64;77.97;98560.61;104523;1297;61558;-72
2023/01/18 03:52:36;;;;;;;;;;;;;;;-0.65;78.03;98563.16;104546;1297;61305;-72
2023/01/18 03:55:17;;;;;;;;;;;;;;;-0.68;78.01;98563.33;104525;1295;70819;-74
2023/01/18 03:57:57;;;;;;;;;;;;;;;-0.68;78.02;98565.70;104509;1297;61232;-74
2023/01/18 04:00:22;;;;;;;;;;;;;;;-0.69;78.12;98570.44;104400;1301;61246;-74
2023/01/18 04:02:49;;;;;;;;;;;;;;;-0.70;78.11;98574.85;104414;1297;59864;-74
2023/01/18 04:05:15;;;;;;;;;;;;;;;-0.71;78.11;98576.55;104547;1297;61297;-74
2023/01/18 04:07:40;;;;;;;;;;;;;;;-0.74;78.12;98576.73;104430;1298;59705;-73
2023/01/18 04:10:06;;;;;;;;;;;;;;;-0.76;78.13;98579.95;104452;1300;61622;-72
2023/01/18 04:12:33;;;;;;;;;;;;;;;-0.76;78.22;98581.64;104721;1300;62227;-72
2023/01/18 04:14:59;;;;;;;;;;;;;;;-0.75;78.26;98579.95;105500;1297;59201;-72
2023/01/18 04:17:24;;;;;;;;;;;;;;;-0.73;78.19;98581.63;105627;1296;59709;-72
2023/01/18 04:19:50;;;;;;;;;;;;;;;-0.70;78.18;98581.44;105627;1299;59619;-73
2023/01/18 04:22:15;;;;;;;;;;;;;;;-0.70;78.10;98589.56;105541;1296;59086;-73
2023/01/18 04:24:41;;;;;;;;;;;;;;;-0.69;78.08;98586.35;105947;1288;58973;-72
2023/01/18 04:27:06;;;;;;;;;;;;;;;-0.66;78.00;98589.23;106253;1288;59219;-72
2023/01/18 04:29:32;;;;;;;;;;;;;;;-0.66;77.99;98587.35;106082;1289;59847;-72
2023/01/18 04:31:57;;;;;;;;;;;;;;;-0.66;78.00;98588.20;106230;1288;59253;-72
2023/01/18 04:34:22;;;;;;;;;;;;;;;-0.63;78.01;98585.15;105172;1288;61250;-72
2023/01/18 04:36:48;;;;;;;;;;;;;;;-0.64;77.96;98580.08;105200;1288;61920;-72
2023/01/18 04:39:14;;;;;;;;;;;;;;;-0.63;78.05;98579.05;105155;1291;61196;-72
2023/01/18 04:41:39;;;;;;;;;;;;;;;-0.62;78.05;98582.60;105131;1291;61328;-72
2023/01/18 04:44:04;;;;;;;;;;;;;;;-0.62;77.97;98582.77;105228;1291;61973;-73
2023/01/18 04:46:30;;;;;;;;;;;;;;;-0.63;78.07;98586.50;105241;1291;61353;-73
2023/01/18 04:48:55;;;;;;;;;;;;;;;-0.64;78.21;98585.83;105118;1288;59365;-72
2023/01/18 04:51:22;;;;;;;;;;;;;;;-0.62;78.18;98584.30;105077;1288;61373;-72
2023/01/18 04:53:48;;;;;;;;;;;;;;;-0.63;78.21;98588.02;105191;1290;61067;-73
2023/01/18 04:56:13;;;;;;;;;;;;;;;-0.63;78.21;98585.48;105182;1289;59781;-73
2023/01/18 04:58:39;;;;;;;;;;;;;;;-0.62;78.32;98584.64;104983;1294;61183;-72
2023/01/18 05:01:06;;;;;;;;;;;;;;;-0.60;78.40;98589.36;105087;1291;61379;-72
2023/01/18 05:03:37;;;;;;;;;;;;;;;-0.59;78.35;98589.87;104998;1289;61043;-72
2023/01/18 05:06:05;;;;;;;;;;;;;;;-0.58;78.38;98589.35;105097;1288;73154;-72
2023/01/18 05:08:31;;;;;;;;;;;;;;;-0.55;78.40;98587.31;105027;1292;67737;-73
2023/01/18 05:11:01;;;;;;;;;;;;;;;-0.52;78.48;98587.79;105068;1289;61293;-72
2023/01/18 05:13:26;;;;;;;;;;;;;;;-0.49;78.45;98584.55;105166;1287;59126;-72
2023/01/18 05:15:51;;;;;;;;;;;;;;;-0.46;78.54;98580.30;105196;1292;61345;-72
2023/01/18 05:18:16;;;;;;;;;;;;;;;-0.42;78.52;98575.55;105096;1292;61272;-72
2023/01/18 05:20:42;;;;;;;;;;;;;;;-0.38;78.49;98573.16;105063;1290;61411;-72
2023/01/18 05:23:09;;;;;;;;;;;;;;;-0.35;78.56;98576.36;105107;1292;61030;-72
2023/01/18 05:25:34;;;;;;;;;;;;;;;-0.33;78.50;98573.30;105072;1294;60562;-72
2023/01/18 05:28:00;;;;;;;;;;;;;;;-0.30;78.58;98581.58;105187;1290;59786;-72
2023/01/18 05:30:25;;;;;;;;;;;;;;;-0.28;78.55;98579.88;105020;1289;61289;-73
2023/01/18 05:32:50;;;;;;;;;;;;;;;-0.24;78.57;98577.66;105145;1288;61278;-75
2023/01/18 05:35:16;;;;;;;;;;;;;;;-0.20;78.55;98571.20;105214;1290;59268;-74
2023/01/18 05:37:41;;;;;;;;;;;;;;;-0.17;78.56;98574.91;105202;1292;61339;-74
2023/01/18 05:40:08;;;;;;;;;;;;;;;-0.15;78.47;98573.05;105217;1289;61307;-74
2023/01/18 05:42:33;;;;;;;;;;;;;;;-0.13;78.58;98572.69;105233;1290;59836;-74
2023/01/18 05:44:58;;;;;;;;;;;;;;;-0.11;78.59;98573.86;105261;1290;61346;-74
2023/01/18 05:47:24;;;;;;;;;;;;;;;-0.08;78.61;98572.66;105237;1292;59075;-74
2023/01/18 05:49:49;;;;;;;;;;;;;;;-0.06;78.59;98577.39;105043;1293;67671;-74
2023/01/18 05:52:15;;;;;;;;;;;;;;;-0.04;78.58;98575.52;105232;1290;59738;-74
2023/01/18 05:54:41;;;;;;;;;;;;;;;-0.01;78.62;98579.56;105197;1290;60805;-74
2023/01/18 05:57:06;;;;;;;;;;;;;;;0.01;78.63;98574.45;105101;1292;61241;-74
2023/01/18 05:59:31;;;;;;;;;;;;;;;0.01;78.67;98582.56;105260;1296;61397;-74
2023/01/18 06:01:57;;;;;;;;;;;;;;;0.03;78.63;98582.39;105162;1288;70400;-74
2023/01/18 06:04:22;;;;;;;;;;;;;;;0.03;78.65;98581.88;105148;1289;61344;-74
2023/01/18 06:06:47;;;;;;;;;;;;;;;0.06;78.69;98581.35;105191;1292;59810;-74
2023/01/18 06:09:13;;;;;;;;;;;;;;;0.07;78.66;98580.83;105288;1288;61277;-74
2023/01/18 06:11:38;;;;;;;;;;;;;;;0.09;78.77;98584.88;105311;1289;59293;-74
2023/01/18 06:14:03;;;;;;;;;;;;;;;0.10;78.70;98586.40;105191;1289;61240;-74
2023/01/18 06:16:29;;;;;;;;;;;;;;;0.12;78.74;98585.38;105216;1290;59536;-74
2023/01/18 06:18:54;;;;;;;;;;;;;;;0.13;78.73;98590.61;105279;1289;61353;-74
2023/01/18 06:21:19;;;;;;;;;;;;;;;0.13;78.71;98591.46;105225;1287;59692;-74
2023/01/18 06:23:45;;;;;;;;;;;;;;;0.14;78.73;98596.38;105212;1288;61275;-74
2023/01/18 06:26:10;;;;;;;;;;;;;;;0.14;78.69;98597.05;105190;1289;59700;-74
2023/01/18 06:28:35;;;;;;;;;;;;;;;0.12;78.65;98607.39;105042;1289;59462;-74
2023/01/18 06:31:03;;;;;;;;;;;;;;;0.09;78.67;98609.11;105257;1288;61315;-72
2023/01/18 06:33:29;;;;;;;;;;;;;;;0.07;78.75;98609.96;105074;1291;61365;-74
2023/01/18 06:35:54;;;;;;;;;;;;;;;0.07;78.76;98611.33;105091;1289;59345;-73
2023/01/18 06:38:20;;;;;;;;;;;;;;;0.07;78.82;98608.61;105226;1289;61413;-72
2023/01/18 06:40:45;;;;;;;;;;;;;;;0.08;78.85;98612.50;106040;1288;58994;-72
2023/01/18 06:43:12;;;;;;;;;;;;;;;0.09;78.92;98612.33;106267;1288;59167;-72
2023/01/18 06:45:38;;;;;;;;;;;;;;;0.11;78.86;98613.66;106095;1289;59184;-72
2023/01/18 06:48:03;;;;;;;;;;;;;;;0.15;78.83;98615.16;106118;1289;59743;-72
2023/01/18 06:50:29;;;;;;;;;;;;;;;0.17;78.76;98610.74;106126;1289;59218;-72
2023/01/18 06:52:54;;;;;;;;;;;;;;;0.20;78.85;98606.16;106230;1291;59087;-73
2023/01/18 06:55:20;;;;;;;;;;;;;;;0.23;78.85;98598.34;106033;1288;59245;-73
2023/01/18 06:57:46;;;;;;;;;;;;;;;0.25;78.86;98599.17;105976;1289;74456;-74
2023/01/18 07:00:12;;;;;;;;;;;;;;;0.27;78.93;98602.89;106102;1288;59340;-72
2023/01/18 07:02:38;;;;;;;;;;;;;;;0.29;78.92;98608.13;106096;1290;59774;-75
2023/01/18 07:05:04;;;;;;;;;;;;;;;0.30;78.82;98609.98;106021;1288;59723;-74
2023/01/18 07:07:29;;;;;;;;;;;;;;;0.31;78.84;98609.30;106189;1288;58801;-75
2023/01/18 07:09:55;;;;;;;;;;;;;;;0.32;78.90;98609.96;106187;1288;59113;-74
2023/01/18 07:12:20;;;;;;;;;;;;;;;0.34;78.89;98610.98;106068;1289;59108;-75
2023/01/18 07:14:46;;;;;;;;;;;;;;;0.35;78.93;98611.81;105997;1290;58982;-75
2023/01/18 07:17:11;;;;;;;;;;;;;;;0.37;78.94;98612.65;106186;1288;58971;-75
2023/01/18 07:19:37;;;;;;;;;;;;;;;0.38;78.95;98612.64;106209;1288;59392;-75
2023/01/18 07:22:02;;;;;;;;;;;;;;;0.39;78.96;98612.64;106177;1288;59306;-75
2023/01/18 07:24:27;;;;;;;;;;;;;;;0.41;78.95;98610.08;106236;1288;59194;-75
2023/01/18 07:26:53;;;;;;;;;;;;;;;0.42;78.97;98611.77;106187;1287;59478;-75
2023/01/18 07:29:19;;;;;;;;;;;;;;;0.44;78.96;98617.17;105997;1288;59071;-75
2023/01/18 07:31:44;;;;;;;;;;;;;;;0.47;79.04;98621.39;106192;1288;59304;-75
2023/01/18 07:34:10;;;;;;;;;;;;;;;0.49;79.06;98623.41;106078;1288;59054;-75
2023/01/18 07:36:38;;;;;;;;;;;;;;;0.50;79.01;98623.73;106261;1288;58799;-75
2023/01/18 07:39:03;;;;;;;;;;;;;;;0.52;79.05;98627.95;106160;1288;74441;-75
2023/01/18 07:41:29;;;;;;;;;;;;;;;0.54;79.02;98630.28;106060;1288;59049;-75
2023/01/18 07:43:55;;;;;;;;;;;;;;;0.56;79.09;98631.29;106180;1287;59592;-75
2023/01/18 07:46:21;;;;;;;;;;;;;;;0.57;79.14;98631.61;106164;1288;59806;-75
2023/01/18 07:48:47;;;;;;;;;;;;;;;0.59;79.10;98629.57;106201;1289;59559;-74
2023/01/18 07:51:13;;;;;;;;;;;;;;;0.62;79.14;98629.20;106044;1290;58827;-74
2023/01/18 07:53:38;;;;;;;;;;;;;;;0.64;79.17;98626.64;106010;1288;59416;-74
2023/01/18 07:56:07;;;;;;;;;;;;;;;0.66;79.12;98621.89;106210;1288;59061;-74
2023/01/18 07:58:36;;;;;;;;;;;;;;;0.70;79.13;98621.36;106183;1289;58837;-75
2023/01/18 08:01:06;;;;;;;;;;;;;;;0.72;79.17;98625.73;106158;1288;75230;-75
2023/01/18 08:03:32;;;;;;;;;;;;;;;0.75;79.14;98623.67;106076;1288;67562;-75
2023/01/18 08:05:58;;;;;;;;;;;;;;;0.77;79.15;98625.20;106247;1288;59432;-75
2023/01/18 08:08:23;;;;;;;;;;;;;;;0.79;79.24;98621.61;106185;1289;59553;-75
2023/01/18 08:10:52;;;;;;;;;;;;;;;0.81;79.19;98617.85;106209;1288;59020;-76
2023/01/18 08:13:18;;;;;;;;;;;;;;;0.85;79.25;98620.54;106036;1288;72769;-75
2023/01/18 08:15:43;;;;;;;;;;;;;;;0.88;79.24;98622.21;106215;1288;59525;-78
2023/01/18 08:18:13;;;;;;;;;;;;;;;0.91;79.27;98617.94;106238;1288;59011;-74
2023/01/18 08:20:41;;;;;;;;;;;;;;;0.93;79.25;98615.55;106216;1289;58945;-73
2023/01/18 08:23:06;;;;;;;;;;;;;;;0.96;79.32;98616.87;106194;1288;58862;-73
2023/01/18 08:25:32;;;;;;;;;;;;;;;1.00;79.22;98620.05;106175;1288;59341;-73
2023/01/18 08:27:59;;;;;;;;;;;;;;;1.03;79.25;98618.16;106030;1288;59477;-73
2023/01/18 08:30:26;;;;;;;;;;;;;;;1.06;79.28;98616.91;106054;1289;59107;-73
2023/01/18 08:32:53;;;;;;;;;;;;;;;1.10;79.34;98617.21;106047;1288;59273;-73
2023/01/18 08:35:19;;;;;;;;;;;;;;;1.13;79.28;98625.50;106232;1288;59005;-73
2023/01/18 08:37:44;;;;;;;;;;;;;;;1.17;79.30;98627.84;106027;1293;59667;-73
2023/01/18 08:40:10;;;;;;;;;;;;;;;1.19;79.37;98625.60;106056;1290;59540;-73
2023/01/18 08:42:35;;;;;;;;;;;;;;;1.23;79.33;98623.02;106039;1288;59476;-73
2023/01/18 08:45:01;;;;;;;;;;;;;;;1.26;79.38;98616.20;106065;1288;59392;-73
2023/01/18 08:47:26;;;;;;;;;;;;;;;1.30;79.42;98620.58;106166;1288;73856;-73
2023/01/18 08:49:52;;;;;;;;;;;;;;;1.34;79.28;98623.25;106219;1288;58961;-73
2023/01/18 08:52:17;;;;;;;;;;;;;;;1.37;79.34;98630.85;106179;1288;59426;-73
2023/01/18 08:54:42;;;;;;;;;;;;;;;1.40;79.37;98636.77;106024;1288;59004;-73
2023/01/18 08:57:08;;;;;;;;;;;;;;;1.42;79.34;98635.04;106204;1288;59227;-73
2023/01/18 08:59:33;;;;;;;;;;;;;;;1.45;79.34;98632.45;106183;1288;58964;-73
2023/01/18 09:01:59;;;;;;;;;;;;;;;1.47;79.36;98626.16;106209;1288;59045;-73
2023/01/18 09:04:26;;;;;;;;;;;;;;;1.50;79.28;98628.34;106187;1288;59102;-73
2023/01/18 09:06:52;;;;;;;;;;;;;;;1.53;79.41;98633.90;106051;1289;59013;-73
2023/01/18 09:09:17;;;;;;;;;;;;;;;1.55;79.34;98636.42;106153;1287;58961;-73
2023/01/18 09:11:43;;;;;;;;;;;;;;;1.57;79.35;98634.84;106048;1288;59261;-73
2023/01/18 09:14:08;;;;;;;;;;;;;;;1.60;79.36;98633.61;106032;1291;59812;-73
2023/01/18 09:16:33;;;;;;;;;;;;;;;1.62;79.38;98633.92;106188;1288;59037;-73
2023/01/18 09:18:59;;;;;;;;;;;;;;;1.65;79.43;98636.61;106014;1288;59411;-73
2023/01/18 09:21:27;;;;;;;;;;;;;;;1.68;79.39;98637.77;106047;1288;59124;-73
2023/01/18 09:23:52;;;;;;;;;;;;;;;1.70;79.39;98638.25;106034;1289;59337;-73
2023/01/18 09:26:19;;;;;;;;;;;;;;;1.72;79.34;98638.05;106236;1288;59084;-73
2023/01/18 09:28:51;;;;;;;;;;;;;;;1.74;79.35;98636.84;106009;1289;58964;-73
2023/01/18 09:31:17;;;;;;;;;;;;;;;1.76;79.44;98640.38;106030;1288;73775;-73
2023/01/18 09:33:42;;;;;;;;;;;;;;;1.79;79.42;98644.77;106071;1293;59455;-73
2023/01/18 09:36:09;;;;;;;;;;;;;;;1.82;79.48;98647.11;106072;1288;59535;-73
2023/01/18 09:38:35;;;;;;;;;;;;;;;1.85;79.42;98646.39;105998;1289;59487;-73
2023/01/18 09:41:01;;;;;;;;;;;;;;;1.87;79.39;98644.66;105952;1290;59280;-73
2023/01/18 09:43:33;;;;;;;;;;;;;;;1.89;79.44;98646.52;105891;1291;59148;-73
2023/01/18 09:46:00;;;;;;;;;;;;;;;1.90;79.44;98645.30;106033;1289;69170;-73
2023/01/18 09:48:30;;;;;;;;;;;;;;;1.91;79.47;98645.63;105899;1289;71664;-73
2023/01/18 09:51:01;;;;;;;;;;;;;;;1.93;79.51;98646.46;105883;1289;59127;-73
2023/01/18 09:53:42;;;;;;;;;;;;;;;1.94;79.56;98645.26;105925;1289;59334;-73
2023/01/18 09:56:15;;;;;;;;;;;;;;;1.97;79.54;98643.85;105902;1290;75400;-73
2023/01/18 09:58:59;;;;;;;;;;;;;;;2.00;79.57;98642.97;105969;1289;68886;-73
2023/01/18 10:01:29;;;;;;;;;;;;;;;2.03;79.53;98639.88;106006;1289;73360;-73
2023/01/18 10:04:15;;;;;;;;;;;;;;;2.05;79.51;98636.61;106051;1289;59153;-73
2023/01/18 10:06:46;;;;;;;;;;;;;;;2.05;79.54;98636.95;106049;1289;60346;-73
2023/01/18 10:09:21;;;;;;;;;;;;;;;2.06;79.55;98634.05;106049;1289;74238;-73
2023/01/18 10:12:00;;;;;;;;;;;;;;;2.07;79.48;98632.52;105991;1293;66879;-73
2023/01/18 10:14:46;;;;;;;;;;;;;;;2.09;79.54;98626.52;106007;1289;70344;-73
2023/01/18 10:17:13;;;;;;;;;;;;;;;2.11;79.54;98625.80;105976;1289;59105;-73
2023/01/18 10:19:39;;;;;;;;;;;;;;;2.15;79.63;98622.70;105993;1291;59098;-73
2023/01/18 10:22:23;;;;;;;;;;;;;;;2.16;79.62;98618.58;106015;1289;59139;-73
2023/01/18 10:24:54;;;;;;;;;;;;;;;2.20;79.74;98622.78;106061;1289;67421;-73
2023/01/18 10:27:26;;;;;;;;;;;;;;;2.22;79.58;98629.73;106049;1290;71404;-73
2023/01/18 10:30:04;;;;;;;;;;;;;;;2.24;79.54;98631.90;106025;1289;58851;-73
2023/01/18 10:32:31;;;;;;;;;;;;;;;2.27;79.66;98634.08;106036;1289;59514;-73
2023/01/18 10:34:57;;;;;;;;;;;;;;;2.29;79.57;98634.39;105867;1289;72902;-73
2023/01/18 10:37:28;;;;;;;;;;;;;;;2.30;79.60;98637.08;106163;1288;59014;-73
2023/01/18 10:39:59;;;;;;;;;;;;;;;2.32;79.60;98640.79;106097;1288;72907;-73
2023/01/18 10:42:55;;;;;;;;;;;;;;;2.33;79.56;98641.46;106171;1288;59349;-73
2023/01/18 10:45:25;;;;;;;;;;;;;;;2.34;79.56;98643.16;105504;1295;59674;-73
2023/01/18 10:47:51;;;;;;;;;;;;;;;2.37;79.63;98646.85;105432;1296;73095;-73
2023/01/18 10:50:18;;;;;;;;;;;;;;;2.39;79.60;98650.05;105384;1297;70847;-73
2023/01/18 10:52:44;;;;;;;;;;;;;;;2.40;79.55;98652.23;105410;1297;72312;-73
2023/01/18 10:55:13;;;;;;;;;;;;;;;2.41;79.59;98655.96;105475;1296;59183;-73
2023/01/18 10:57:44;;;;;;;;;;;;;;;2.44;79.63;98658.83;105507;1296;61112;-73
2023/01/18 11:00:32;;;;;;;;;;;;;;;2.46;79.66;98657.59;105509;1296;74725;-73
2023/01/18 11:02:58;;;;;;;;;;;;;;;2.48;79.60;98656.71;105579;1296;67878;-73
2023/01/18 11:05:36;;;;;;;;;;;;;;;2.50;79.58;98657.54;105544;1297;59433;-73
2023/01/18 11:08:21;;;;;;;;;;;;;;;2.49;79.50;98654.99;105496;1297;59440;-73
2023/01/18 11:11:10;;;;;;;;;;;;;;;2.46;79.48;98658.11;105527;1296;59038;-73
2023/01/18 11:13:38;;;;;;;;;;;;;;;2.44;79.46;98658.14;105484;1295;73625;-73
2023/01/18 11:16:14;;;;;;;;;;;;;;;2.43;79.44;98655.09;105556;1295;67761;-73
2023/01/18 11:18:54;;;;;;;;;;;;;;;2.40;79.50;98655.47;105522;1297;70819;-73
2023/01/18 11:21:19;;;;;;;;;;;;;;;2.38;79.43;98654.48;105629;1288;58441;-73
2023/01/18 11:23:45;;;;;;;;;;;;;;;2.33;79.41;98656.92;106230;1288;58914;-73
2023/01/18 11:26:14;;;;;;;;;;;;;;;2.32;79.46;98657.80;106031;1289;59232;-73
2023/01/18 11:29:18;;;;;;;;;;;;;;;2.31;79.54;98654.06;106206;1287;67378;-73
2023/01/18 11:31:45;;;;;;;;;;;;;;;2.31;79.52;98657.98;105415;1295;72721;-72
2023/01/18 11:34:36;;;;;;;;;;;;;;;2.30;79.51;98657.66;105383;1297;59448;-72
2023/01/18 11:37:03;;;;;;;;;;;;;;;2.28;79.59;98660.08;105475;1297;59442;-73
2023/01/18 11:39:32;;;;;;;;;;;;;;;2.30;79.66;98662.42;105452;1296;59243;-72
2023/01/18 11:42:16;;;;;;;;;;;;;;;2.32;79.71;98666.96;105403;1295;66486;-72
2023/01/18 11:45:00;;;;;;;;;;;;;;;2.34;79.72;98664.58;105451;1296;73414;-72
2023/01/18 11:47:30;;;;;;;;;;;;;;;2.35;79.71;98670.34;105487;1296;59512;-72
2023/01/18 11:50:01;;;;;;;;;;;;;;;2.35;79.64;98667.80;105421;1296;59324;-72
2023/01/18 11:52:45;;;;;;;;;;;;;;;2.33;79.66;98667.80;105376;1296;73814;-72
2023/01/18 11:55:20;;;;;;;;;;;;;;;2.32;79.63;98667.30;105423;1296;69025;-72
2023/01/18 11:57:46;;;;;;;;;;;;;;;2.33;79.75;98670.70;105430;1296;72413;-74
2023/01/18 12:00:13;;;;;;;;;;;;;;;2.35;79.75;98667.95;105380;1296;59615;-74
2023/01/18 12:02:38;;;;;;;;;;;;;;;2.38;79.80;98669.44;105620;1289;59491;-73
2023/01/18 12:05:04;;;;;;;;;;;;;;;2.40;79.84;98669.59;106070;1289;59532;-72
2023/01/18 12:07:53;;;;;;;;;;;;;;;2.43;79.88;98670.06;106068;1290;59852;-72
2023/01/18 12:10:23;;;;;;;;;;;;;;;2.43;79.70;98664.10;105815;1289;73481;-72
2023/01/18 12:13:04;;;;;;;;;;;;;;;2.41;79.72;98666.35;106033;1291;58943;-72
2023/01/18 12:15:40;;;;;;;;;;;;;;;2.42;79.78;98670.08;105992;1290;60303;-72
2023/01/18 12:18:18;;;;;;;;;;;;;;;2.43;79.75;98665.46;105606;1290;513643;-72
2023/01/18 12:21:02;;;;;;;;;;;;;;;2.41;79.72;98665.15;105867;1290;67071;-72
2023/01/18 12:23:34;;;;;;;;;;;;;;;2.40;79.70;98662.27;105025;1290;72526;-72
2023/01/18 12:26:16;;;;;;;;;;;;;;;2.40;79.76;98666.02;105099;1290;59639;-72
2023/01/18 12:28:49;;;;;;;;;;;;;;;2.41;79.86;98664.64;105066;1292;59945;-72
2023/01/18 12:31:17;;;;;;;;;;;;;;;2.42;79.84;98665.14;105995;1289;73899;-72
2023/01/18 12:33:56;;;;;;;;;;;;;;;2.41;79.70;98663.79;106017;1289;68077;-72
2023/01/18 12:36:32;;;;;;;;;;;;;;;2.37;79.71;98663.00;106037;1289;72903;-72
2023/01/18 12:39:00;;;;;;;;;;;;;;;2.34;79.75;98667.46;106216;1288;59043;-72
2023/01/18 12:41:31;;;;;;;;;;;;;;;2.33;79.74;98667.13;106041;1288;59640;-72
2023/01/18 12:44:07;;;;;;;;;;;;;;;2.32;79.80;98666.45;106185;1288;73588;-72
2023/01/18 12:47:11;;;;;;;;;;;;;;;2.33;79.84;98665.95;106183;1287;68216;-72
2023/01/18 12:49:43;;;;;;;;;;;;;;;2.36;79.87;98667.43;105377;1296;72873;-72
2023/01/18 12:52:10;;;;;;;;;;;;;;;2.39;79.84;98670.30;101331;1297;5182433;-72
2023/01/18 12:54:40;;;;;;;;;;;;;;;2.40;79.83;98671.63;104827;1296;59318;-72
2023/01/18 12:57:06;;;;;;;;;;;;;;;2.42;79.90;98675.00;104482;1296;74321;-72
2023/01/18 12:59:39;;;;;;;;;;;;;;;2.43;79.96;98674.48;104400;1297;67443;-72
2023/01/18 13:02:23;;;;;;;;;;;;;;;2.44;79.90;98680.41;104465;1296;72237;-72
2023/01/18 13:05:03;;;;;;;;;;;;;;;2.45;79.99;98682.44;104485;1297;61284;-74
2023/01/18 13:07:31;;;;;;;;;;;;;;;2.48;79.92;98684.27;104368;1301;61269;-74
2023/01/18 13:09:58;;;;;;;;;;;;;;;2.49;79.93;98682.73;104457;1297;73226;-74
2023/01/18 13:12:25;;;;;;;;;;;;;;;2.49;79.94;98681.20;104439;1299;67411;-74
2023/01/18 13:15:04;;;;;;;;;;;;;;;2.48;79.81;98680.52;105346;1299;59256;-74
2023/01/18 13:17:39;;;;;;;;;;;;;;;2.47;79.92;98684.96;105406;1296;59479;-74
2023/01/18 13:20:08;;;;;;;;;;;;;;;2.46;79.91;98684.29;105575;1288;59864;-74
2023/01/18 13:22:47;;;;;;;;;;;;;;;2.47;79.86;98694.48;105229;1288;75137;-74
2023/01/18 13:25:19;;;;;;;;;;;;;;;2.48;79.85;98701.95;105229;1288;68736;-74